sensor_id;sensor_type;location;lat;lon;timestamp;temperature;humidity
4293;DHT22;2160;51.172;6.808;2023-05-20T04:01:22;15.80;99.90
4293;DHT22;2160;51.172;6.808;2023-05-20T04:03:51;16.00;99.90
4293;DHT22;2160;51.172;6.808;2023-05-20T04:06:18;15.80;99.90
4293;DHT22;2160;51.172;6.808;2023-05-20T04:08:49;15.90;99.90
4293;DHT22;2160;51.172;6.808;2023-05-20T04:11:19;15.90;99.90
4293;DHT22;2160;51.172;6.808;2023-05-20T04:13:47;15.80;99.90
4293;DHT22;2160;51.172;6.808;2023-05-20T04:16:14;15.90;99.90
4293;DHT22;2160;51.172;6.808;2023-05-20T04:18:42;15.80;99.90
4293;DHT22;2160;51.172;6.808;2023-05-20T04:21:11;15.80;99.90
4293;DHT22;2160;51.172;6.808;2023-05-20T04:23:38;15.70;99.90
4293;DHT22;2160;51.172;6.808;2023-05-20T04:26:05;15.80;99.90
4293;DHT22;2160;51.172;6.808;2023-05-20T04:28:33;15.70;99.90
4293;DHT22;2160;51.172;6.808;2023-05-20T04:31:02;15.80;99.90
4293;DHT22;2160;51.172;6.808;2023-05-20T04:33:32;15.70;99.90
4293;DHT22;2160;51.172;6.808;2023-05-20T04:36:06;15.80;99.90
4293;DHT22;2160;51.172;6.808;2023-05-20T04:38:33;15.80;99.90
4293;DHT22;2160;51.172;6.808;2023-05-20T04:41:01;15.70;99.90
4293;DHT22;2160;51.172;6.808;2023-05-20T04:43:29;15.80;99.90
4293;DHT22;2160;51.172;6.808;2023-05-20T04:45:57;15.80;99.90
4293;DHT22;2160;51.172;6.808;2023-05-20T04:48:26;16.00;99.90
4293;DHT22;2160;51.172;6.808;2023-05-20T04:50:53;16.00;99.90
4293;DHT22;2160;51.172;6.808;2023-05-20T04:53:21;16.10;99.90
4293;DHT22;2160;51.172;6.808;2023-05-20T04:55:49;16.20;99.90
4293;DHT22;2160;51.172;6.808;2023-05-20T04:58:18;16.30;99.90
4293;DHT22;2160;51.172;6.808;2023-05-20T05:00:50;16.30;99.90
4293;DHT22;2160;51.172;6.808;2023-05-20T05:03:17;16.40;99.90
4293;DHT22;2160;51.172;6.808;2023-05-20T05:05:44;16.40;99.90
4293;DHT22;2160;51.172;6.808;2023-05-20T05:08:11;16.50;99.90
4293;DHT22;2160;51.172;6.808;2023-05-20T05:10:45;16.50;99.90
4293;DHT22;2160;51.172;6.808;2023-05-20T05:13:12;16.50;99.90
4293;DHT22;2160;51.172;6.808;2023-05-20T05:15:39;16.70;99.90
4293;DHT22;2160;51.172;6.808;2023-05-20T05:18:06;16.70;99.90
4293;DHT22;2160;51.172;6.808;2023-05-20T05:20:34;16.90;99.90
4293;DHT22;2160;51.172;6.808;2023-05-20T05:23:02;16.80;99.90
4293;DHT22;2160;51.172;6.808;2023-05-20T05:25:29;16.80;99.90
4293;DHT22;2160;51.172;6.808;2023-05-20T05:27:59;16.80;99.90
4293;DHT22;2160;51.172;6.808;2023-05-20T05:30:26;16.90;99.90
4293;DHT22;2160;51.172;6.808;2023-05-20T05:32:53;16.90;99.90
4293;DHT22;2160;51.172;6.808;2023-05-20T05:35:21;17.00;99.90
4293;DHT22;2160;51.172;6.808;2023-05-20T05:37:48;17.00;99.90
4293;DHT22;2160;51.172;6.808;2023-05-20T05:40:15;17.00;99.90
4293;DHT22;2160;51.172;6.808;2023-05-20T05:42:42;17.10;99.90
4293;DHT22;2160;51.172;6.808;2023-05-20T05:45:11;17.00;99.90
4293;DHT22;2160;51.172;6.808;2023-05-20T05:47:38;17.10;99.90
4293;DHT22;2160;51.172;6.808;2023-05-20T05:50:05;17.00;99.90
4293;DHT22;2160;51.172;6.808;2023-05-20T05:52:33;17.00;99.90
4293;DHT22;2160;51.172;6.808;2023-05-20T05:55:02;17.10;99.90
4293;DHT22;2160;51.172;6.808;2023-05-20T05:57:30;17.20;99.90
4293;DHT22;2160;51.172;6.808;2023-05-20T05:59:58;17.20;99.90
4293;DHT22;2160;51.172;6.808;2023-05-20T06:02:28;17.20;99.90
4293;DHT22;2160;51.172;6.808;2023-05-20T06:04:55;17.30;99.90
4293;DHT22;2160;51.172;6.808;2023-05-20T06:07:22;17.30;99.90
4293;DHT22;2160;51.172;6.808;2023-05-20T06:09:50;17.30;99.90
4293;DHT22;2160;51.172;6.808;2023-05-20T06:12:17;17.40;99.90
4293;DHT22;2160;51.172;6.808;2023-05-20T06:14:44;17.50;99.90
4293;DHT22;2160;51.172;6.808;2023-05-20T06:17:11;17.40;99.90
4293;DHT22;2160;51.172;6.808;2023-05-20T06:19:40;17.50;99.90
4293;DHT22;2160;51.172;6.808;2023-05-20T06:22:07;17.70;99.90
4293;DHT22;2160;51.172;6.808;2023-05-20T06:24:35;17.70;99.90
4293;DHT22;2160;51.172;6.808;2023-05-20T06:27:02;17.60;99.90
4293;DHT22;2160;51.172;6.808;2023-05-20T06:29:29;17.60;99.90
4293;DHT22;2160;51.172;6.808;2023-05-20T06:31:56;17.50;99.90
4293;DHT22;2160;51.172;6.808;2023-05-20T06:34:23;17.50;99.90
4293;DHT22;2160;51.172;6.808;2023-05-20T06:36:52;17.60;99.90
4293;DHT22;2160;51.172;6.808;2023-05-20T06:39:19;17.70;99.90
4293;DHT22;2160;51.172;6.808;2023-05-20T06:41:46;17.70;99.90
4293;DHT22;2160;51.172;6.808;2023-05-20T06:44:25;17.70;99.90
4293;DHT22;2160;51.172;6.808;2023-05-20T06:46:58;17.80;99.90
4293;DHT22;2160;51.172;6.808;2023-05-20T06:49:25;17.90;99.90
4293;DHT22;2160;51.172;6.808;2023-05-20T06:51:54;18.10;99.90
4293;DHT22;2160;51.172;6.808;2023-05-20T06:54:21;18.00;99.90
4293;DHT22;2160;51.172;6.808;2023-05-20T06:56:49;17.90;99.90
4293;DHT22;2160;51.172;6.808;2023-05-20T06:59:16;17.90;99.90
4293;DHT22;2160;51.172;6.808;2023-05-20T07:01:43;17.90;99.90
4293;DHT22;2160;51.172;6.808;2023-05-20T07:04:11;17.90;99.90
4293;DHT22;2160;51.172;6.808;2023-05-20T07:06:38;17.90;99.90
4293;DHT22;2160;51.172;6.808;2023-05-20T07:09:06;18.10;99.90
4293;DHT22;2160;51.172;6.808;2023-05-20T07:11:33;18.10;99.90
4293;DHT22;2160;51.172;6.808;2023-05-20T07:14:00;18.20;99.90
4293;DHT22;2160;51.172;6.808;2023-05-20T07:16:29;18.10;99.90
4293;DHT22;2160;51.172;6.808;2023-05-20T07:18:57;18.20;99.90
4293;DHT22;2160;51.172;6.808;2023-05-20T07:21:25;18.40;99.90
4293;DHT22;2160;51.172;6.808;2023-05-20T07:24:15;18.40;99.90
4293;DHT22;2160;51.172;6.808;2023-05-20T07:26:42;18.10;99.90
4293;DHT22;2160;51.172;6.808;2023-05-20T07:29:09;18.20;99.90
4293;DHT22;2160;51.172;6.808;2023-05-20T07:31:38;18.40;99.90
4293;DHT22;2160;51.172;6.808;2023-05-20T07:34:05;18.60;99.90
4293;DHT22;2160;51.172;6.808;2023-05-20T07:36:32;18.70;99.90
4293;DHT22;2160;51.172;6.808;2023-05-20T07:39:04;18.40;99.90
4293;DHT22;2160;51.172;6.808;2023-05-20T07:41:35;18.30;99.90
4293;DHT22;2160;51.172;6.808;2023-05-20T07:44:04;18.50;99.90
4293;DHT22;2160;51.172;6.808;2023-05-20T07:46:33;18.40;99.90
4293;DHT22;2160;51.172;6.808;2023-05-20T07:49:00;18.30;99.90
4293;DHT22;2160;51.172;6.808;2023-05-20T07:51:27;18.20;99.90
4293;DHT22;2160;51.172;6.808;2023-05-20T07:53:54;18.20;99.90
4293;DHT22;2160;51.172;6.808;2023-05-20T07:56:22;18.20;99.90
4293;DHT22;2160;51.172;6.808;2023-05-20T07:58:53;18.30;99.90
4293;DHT22;2160;51.172;6.808;2023-05-20T08:01:22;18.50;99.90
4293;DHT22;2160;51.172;6.808;2023-05-20T08:03:49;18.40;99.90
4293;DHT22;2160;51.172;6.808;2023-05-20T08:06:19;18.30;99.90
4293;DHT22;2160;51.172;6.808;2023-05-20T08:08:47;18.30;99.90
4293;DHT22;2160;51.172;6.808;2023-05-20T08:11:26;18.40;99.90
4293;DHT22;2160;51.172;6.808;2023-05-20T08:17:52;18.40;99.90
4293;DHT22;2160;51.172;6.808;2023-05-20T08:20:20;18.50;99.90
4293;DHT22;2160;51.172;6.808;2023-05-20T08:23:32;18.50;99.90
4293;DHT22;2160;51.172;6.808;2023-05-20T08:30:25;18.40;99.90
4293;DHT22;2160;51.172;6.808;2023-05-20T08:33:00;18.60;99.90
4293;DHT22;2160;51.172;6.808;2023-05-20T08:35:28;18.80;99.90
4293;DHT22;2160;51.172;6.808;2023-05-20T08:37:55;18.80;99.90
4293;DHT22;2160;51.172;6.808;2023-05-20T08:40:25;18.60;99.90
4293;DHT22;2160;51.172;6.808;2023-05-20T08:42:53;18.80;99.90
4293;DHT22;2160;51.172;6.808;2023-05-20T08:45:22;18.90;99.90
4293;DHT22;2160;51.172;6.808;2023-05-20T08:47:53;19.10;99.90
4293;DHT22;2160;51.172;6.808;2023-05-20T08:50:24;19.30;99.90
4293;DHT22;2160;51.172;6.808;2023-05-20T08:52:51;19.30;99.90
4293;DHT22;2160;51.172;6.808;2023-05-20T08:55:25;19.30;99.90
4293;DHT22;2160;51.172;6.808;2023-05-20T08:57:53;19.50;99.90
4293;DHT22;2160;51.172;6.808;2023-05-20T09:00:21;19.40;99.90
4293;DHT22;2160;51.172;6.808;2023-05-20T09:02:52;19.50;99.90
4293;DHT22;2160;51.172;6.808;2023-05-20T09:05:19;19.50;99.90
4293;DHT22;2160;51.172;6.808;2023-05-20T09:07:48;19.60;99.90
4293;DHT22;2160;51.172;6.808;2023-05-20T09:10:15;19.80;99.90
4293;DHT22;2160;51.172;6.808;2023-05-20T09:12:42;19.90;99.90
4293;DHT22;2160;51.172;6.808;2023-05-20T09:15:10;20.10;99.90
4293;DHT22;2160;51.172;6.808;2023-05-20T09:17:37;20.20;99.90
4293;DHT22;2160;51.172;6.808;2023-05-20T09:20:09;20.40;99.90
4293;DHT22;2160;51.172;6.808;2023-05-20T09:22:38;20.50;99.90
4293;DHT22;2160;51.172;6.808;2023-05-20T09:25:07;20.70;99.90
4293;DHT22;2160;51.172;6.808;2023-05-20T09:27:36;20.70;99.90
4293;DHT22;2160;51.172;6.808;2023-05-20T09:30:06;20.40;99.90
4293;DHT22;2160;51.172;6.808;2023-05-20T09:32:33;20.30;99.90
4293;DHT22;2160;51.172;6.808;2023-05-20T09:35:00;20.40;99.90
4293;DHT22;2160;51.172;6.808;2023-05-20T09:37:29;20.30;99.90
4293;DHT22;2160;51.172;6.808;2023-05-20T09:39:59;20.30;99.90
4293;DHT22;2160;51.172;6.808;2023-05-20T09:42:34;20.40;99.90
4293;DHT22;2160;51.172;6.808;2023-05-20T09:45:04;20.40;99.90
4293;DHT22;2160;51.172;6.808;2023-05-20T09:47:34;20.50;99.90
4293;DHT22;2160;51.172;6.808;2023-05-20T09:50:04;20.60;99.90
4293;DHT22;2160;51.172;6.808;2023-05-20T09:52:33;20.50;99.90
4293;DHT22;2160;51.172;6.808;2023-05-20T09:55:02;20.50;99.90
4293;DHT22;2160;51.172;6.808;2023-05-20T09:57:33;20.50;99.90
4293;DHT22;2160;51.172;6.808;2023-05-20T10:00:00;20.60;99.90
4293;DHT22;2160;51.172;6.808;2023-05-20T10:02:41;20.70;99.90
4293;DHT22;2160;51.172;6.808;2023-05-20T10:05:13;20.70;99.90
4293;DHT22;2160;51.172;6.808;2023-05-20T10:08:06;20.80;99.90
4293;DHT22;2160;51.172;6.808;2023-05-20T10:10:44;20.90;99.90
4293;DHT22;2160;51.172;6.808;2023-05-20T10:13:24;20.80;99.90
4293;DHT22;2160;51.172;6.808;2023-05-20T10:16:01;20.80;99.90
4293;DHT22;2160;51.172;6.808;2023-05-20T10:18:40;20.70;99.90
4293;DHT22;2160;51.172;6.808;2023-05-20T10:21:22;20.70;99.90
4293;DHT22;2160;51.172;6.808;2023-05-20T10:23:50;20.90;99.90
4293;DHT22;2160;51.172;6.808;2023-05-20T10:26:18;20.90;99.90
4293;DHT22;2160;51.172;6.808;2023-05-20T10:28:48;20.80;99.90
4293;DHT22;2160;51.172;6.808;2023-05-20T10:31:16;20.70;99.90
4293;DHT22;2160;51.172;6.808;2023-05-20T10:33:44;20.80;99.90
4293;DHT22;2160;51.172;6.808;2023-05-20T10:36:22;20.70;99.90
4293;DHT22;2160;51.172;6.808;2023-05-20T10:38:52;20.90;99.90
4293;DHT22;2160;51.172;6.808;2023-05-20T10:41:20;20.90;99.90
4293;DHT22;2160;51.172;6.808;2023-05-20T10:44:02;21.20;99.90
4293;DHT22;2160;51.172;6.808;2023-05-20T10:46:29;21.20;99.90
4293;DHT22;2160;51.172;6.808;2023-05-20T10:48:57;21.10;99.90
4293;DHT22;2160;51.172;6.808;2023-05-20T10:51:28;21.20;99.90
4293;DHT22;2160;51.172;6.808;2023-05-20T10:54:01;21.10;99.90
4293;DHT22;2160;51.172;6.808;2023-05-20T10:56:31;21.00;99.90
4293;DHT22;2160;51.172;6.808;2023-05-20T10:59:00;20.90;99.90
4293;DHT22;2160;51.172;6.808;2023-05-20T11:01:28;20.80;99.90
4293;DHT22;2160;51.172;6.808;2023-05-20T11:03:56;20.60;99.90
4293;DHT22;2160;51.172;6.808;2023-05-20T11:06:27;20.60;99.90
4293;DHT22;2160;51.172;6.808;2023-05-20T11:08:54;20.80;99.90
4293;DHT22;2160;51.172;6.808;2023-05-20T11:11:29;20.70;99.90
4293;DHT22;2160;51.172;6.808;2023-05-20T11:13:56;20.60;99.90
4293;DHT22;2160;51.172;6.808;2023-05-20T11:16:26;20.80;99.90
4293;DHT22;2160;51.172;6.808;2023-05-20T11:18:53;20.90;99.90
4293;DHT22;2160;51.172;6.808;2023-05-20T11:21:20;20.70;99.90
4293;DHT22;2160;51.172;6.808;2023-05-20T11:23:50;20.80;99.90
4293;DHT22;2160;51.172;6.808;2023-05-20T11:26:17;20.60;99.90
4293;DHT22;2160;51.172;6.808;2023-05-20T11:28:54;20.70;99.90
4293;DHT22;2160;51.172;6.808;2023-05-20T11:31:22;20.80;99.90
4293;DHT22;2160;51.172;6.808;2023-05-20T11:33:55;20.80;99.90
4293;DHT22;2160;51.172;6.808;2023-05-20T11:36:23;20.70;99.90
4293;DHT22;2160;51.172;6.808;2023-05-20T11:38:50;20.80;99.90
4293;DHT22;2160;51.172;6.808;2023-05-20T11:41:23;20.80;99.90
4293;DHT22;2160;51.172;6.808;2023-05-20T11:43:56;20.90;99.90
4293;DHT22;2160;51.172;6.808;2023-05-20T11:46:24;21.10;99.90
4293;DHT22;2160;51.172;6.808;2023-05-20T11:49:00;21.00;99.90
4293;DHT22;2160;51.172;6.808;2023-05-20T11:51:28;21.00;99.90
4293;DHT22;2160;51.172;6.808;2023-05-20T11:53:58;21.20;99.90
4293;DHT22;2160;51.172;6.808;2023-05-20T11:56:27;21.40;99.90
4293;DHT22;2160;51.172;6.808;2023-05-20T11:58:56;21.50;99.90
4293;DHT22;2160;51.172;6.808;2023-05-20T12:01:28;21.40;99.90
4293;DHT22;2160;51.172;6.808;2023-05-20T12:03:55;21.30;99.90
4293;DHT22;2160;51.172;6.808;2023-05-20T12:06:24;21.40;99.90
4293;DHT22;2160;51.172;6.808;2023-05-20T12:08:53;21.40;99.90
4293;DHT22;2160;51.172;6.808;2023-05-20T12:11:21;21.50;99.90
4293;DHT22;2160;51.172;6.808;2023-05-20T12:13:48;21.50;99.90
4293;DHT22;2160;51.172;6.808;2023-05-20T12:16:18;21.50;99.90
4293;DHT22;2160;51.172;6.808;2023-05-20T12:18:45;21.30;99.90
4293;DHT22;2160;51.172;6.808;2023-05-20T12:21:12;21.40;99.90
4293;DHT22;2160;51.172;6.808;2023-05-20T12:23:40;21.50;99.90
4293;DHT22;2160;51.172;6.808;2023-05-20T12:26:11;21.60;99.90
4293;DHT22;2160;51.172;6.808;2023-05-20T12:28:38;21.80;99.90
4293;DHT22;2160;51.172;6.808;2023-05-20T12:31:05;21.90;99.90
4293;DHT22;2160;51.172;6.808;2023-05-20T12:33:32;22.00;99.90
4293;DHT22;2160;51.172;6.808;2023-05-20T12:35:59;21.80;99.90
4293;DHT22;2160;51.172;6.808;2023-05-20T12:38:26;21.90;99.90
4293;DHT22;2160;51.172;6.808;2023-05-20T12:40:55;21.80;99.90
4293;DHT22;2160;51.172;6.808;2023-05-20T12:43:22;21.80;99.90
4293;DHT22;2160;51.172;6.808;2023-05-20T12:45:51;21.80;99.90
4293;DHT22;2160;51.172;6.808;2023-05-20T12:48:21;22.00;99.90
4293;DHT22;2160;51.172;6.808;2023-05-20T12:50:47;22.20;99.90
4293;DHT22;2160;51.172;6.808;2023-05-20T12:53:14;22.20;99.90
4293;DHT22;2160;51.172;6.808;2023-05-20T12:55:42;22.20;99.90
4293;DHT22;2160;51.172;6.808;2023-05-20T12:58:10;22.10;99.90
4293;DHT22;2160;51.172;6.808;2023-05-20T13:00:37;22.10;99.90
4293;DHT22;2160;51.172;6.808;2023-05-20T13:03:04;22.10;99.90
4293;DHT22;2160;51.172;6.808;2023-05-20T13:05:31;22.10;99.90
4293;DHT22;2160;51.172;6.808;2023-05-20T13:07:58;22.20;99.90
4293;DHT22;2160;51.172;6.808;2023-05-20T13:10:25;22.40;99.90
4293;DHT22;2160;51.172;6.808;2023-05-20T13:12:52;22.40;99.60
4293;DHT22;2160;51.172;6.808;2023-05-20T13:15:20;22.60;99.90
4293;DHT22;2160;51.172;6.808;2023-05-20T13:17:47;22.70;99.80
4293;DHT22;2160;51.172;6.808;2023-05-20T13:20:14;22.60;99.70
4293;DHT22;2160;51.172;6.808;2023-05-20T13:22:41;22.80;99.90
4293;DHT22;2160;51.172;6.808;2023-05-20T13:25:08;22.80;99.80
4293;DHT22;2160;51.172;6.808;2023-05-20T13:27:35;22.80;99.60
4293;DHT22;2160;51.172;6.808;2023-05-20T13:30:03;22.90;99.10
4293;DHT22;2160;51.172;6.808;2023-05-20T13:32:32;22.90;99.90
4293;DHT22;2160;51.172;6.808;2023-05-20T13:34:59;23.00;99.90
4293;DHT22;2160;51.172;6.808;2023-05-20T13:37:27;23.00;99.20
4293;DHT22;2160;51.172;6.808;2023-05-20T13:39:55;22.80;98.40
4293;DHT22;2160;51.172;6.808;2023-05-20T13:42:22;22.80;98.30
4293;DHT22;2160;51.172;6.808;2023-05-20T13:44:49;22.90;99.90
4293;DHT22;2160;51.172;6.808;2023-05-20T13:47:16;23.00;99.90
4293;DHT22;2160;51.172;6.808;2023-05-20T13:49:44;23.00;99.00
4293;DHT22;2160;51.172;6.808;2023-05-20T13:52:11;23.00;98.60
4293;DHT22;2160;51.172;6.808;2023-05-20T13:54:38;23.00;98.70
4293;DHT22;2160;51.172;6.808;2023-05-20T13:57:07;22.80;98.00
4293;DHT22;2160;51.172;6.808;2023-05-20T13:59:34;22.80;98.50
4293;DHT22;2160;51.172;6.808;2023-05-20T14:02:01;23.00;99.20
4293;DHT22;2160;51.172;6.808;2023-05-20T14:04:29;22.90;96.70
4293;DHT22;2160;51.172;6.808;2023-05-20T14:06:58;23.00;97.60
4293;DHT22;2160;51.172;6.808;2023-05-20T14:09:25;23.10;97.70
4293;DHT22;2160;51.172;6.808;2023-05-20T14:11:52;23.30;97.50
4293;DHT22;2160;51.172;6.808;2023-05-20T14:14:19;23.40;98.20
4293;DHT22;2160;51.172;6.808;2023-05-20T14:16:47;23.40;97.20
4293;DHT22;2160;51.172;6.808;2023-05-20T14:19:14;23.30;96.80
4293;DHT22;2160;51.172;6.808;2023-05-20T14:21:41;23.30;96.70
4293;DHT22;2160;51.172;6.808;2023-05-20T14:24:09;23.20;96.60
4293;DHT22;2160;51.172;6.808;2023-05-20T14:26:36;23.20;96.00
4293;DHT22;2160;51.172;6.808;2023-05-20T14:29:03;23.10;96.40
4293;DHT22;2160;51.172;6.808;2023-05-20T14:31:30;23.00;97.00
4293;DHT22;2160;51.172;6.808;2023-05-20T14:33:57;23.00;96.30
4293;DHT22;2160;51.172;6.808;2023-05-20T14:36:24;23.30;96.80
4293;DHT22;2160;51.172;6.808;2023-05-20T14:38:51;23.30;98.40
4293;DHT22;2160;51.172;6.808;2023-05-20T14:41:20;23.40;96.90
4293;DHT22;2160;51.172;6.808;2023-05-20T14:43:47;23.40;97.20
4293;DHT22;2160;51.172;6.808;2023-05-20T14:46:14;23.20;97.50
4293;DHT22;2160;51.172;6.808;2023-05-20T14:48:41;23.20;98.20
4293;DHT22;2160;51.172;6.808;2023-05-20T14:51:08;23.10;97.40
4293;DHT22;2160;51.172;6.808;2023-05-20T14:53:35;22.80;96.50
4293;DHT22;2160;51.172;6.808;2023-05-20T14:56:03;22.80;97.40
4293;DHT22;2160;51.172;6.808;2023-05-20T14:58:31;22.70;96.20
4293;DHT22;2160;51.172;6.808;2023-05-20T15:00:58;22.50;96.30
4293;DHT22;2160;51.172;6.808;2023-05-20T15:03:25;22.50;97.10
4293;DHT22;2160;51.172;6.808;2023-05-20T15:05:53;22.60;97.20
4293;DHT22;2160;51.172;6.808;2023-05-20T15:08:20;22.70;97.30
4293;DHT22;2160;51.172;6.808;2023-05-20T15:10:47;22.70;96.10
4293;DHT22;2160;51.172;6.808;2023-05-20T15:13:15;22.70;96.70
4293;DHT22;2160;51.172;6.808;2023-05-20T15:15:43;22.90;96.40
4293;DHT22;2160;51.172;6.808;2023-05-20T15:18:10;22.90;95.90
4293;DHT22;2160;51.172;6.808;2023-05-20T15:20:37;22.90;96.10
4293;DHT22;2160;51.172;6.808;2023-05-20T15:23:04;22.80;95.80
4293;DHT22;2160;51.172;6.808;2023-05-20T15:25:31;22.80;95.60
4293;DHT22;2160;51.172;6.808;2023-05-20T15:27:58;22.80;95.70
4293;DHT22;2160;51.172;6.808;2023-05-20T15:30:25;22.70;95.20
4293;DHT22;2160;51.172;6.808;2023-05-20T15:32:53;22.50;95.20
4293;DHT22;2160;51.172;6.808;2023-05-20T15:35:21;22.60;96.20
4293;DHT22;2160;51.172;6.808;2023-05-20T15:37:48;22.90;96.10
4293;DHT22;2160;51.172;6.808;2023-05-20T15:40:15;22.90;96.90
4293;DHT22;2160;51.172;6.808;2023-05-20T15:42:42;22.90;96.30
4293;DHT22;2160;51.172;6.808;2023-05-20T15:45:10;22.80;95.70
4293;DHT22;2160;51.172;6.808;2023-05-20T15:47:37;22.60;95.30
4293;DHT22;2160;51.172;6.808;2023-05-20T15:50:07;22.60;95.40
4293;DHT22;2160;51.172;6.808;2023-05-20T15:52:36;22.40;94.90
4293;DHT22;2160;51.172;6.808;2023-05-20T15:55:03;22.20;95.30
4293;DHT22;2160;51.172;6.808;2023-05-20T15:57:31;22.10;96.60
4293;DHT22;2160;51.172;6.808;2023-05-20T15:59:58;22.20;96.10
4293;DHT22;2160;51.172;6.808;2023-05-20T16:02:25;22.20;96.00
4293;DHT22;2160;51.172;6.808;2023-05-20T16:04:52;22.20;95.80
4293;DHT22;2160;51.172;6.808;2023-05-20T16:07:20;22.40;96.30
4293;DHT22;2160;51.172;6.808;2023-05-20T16:09:47;22.40;96.00
4293;DHT22;2160;51.172;6.808;2023-05-20T16:12:15;22.60;96.50
4293;DHT22;2160;51.172;6.808;2023-05-20T16:14:42;22.30;95.90
4293;DHT22;2160;51.172;6.808;2023-05-20T16:17:09;22.20;95.50
4293;DHT22;2160;51.172;6.808;2023-05-20T16:19:36;22.10;97.40
4293;DHT22;2160;51.172;6.808;2023-05-20T16:22:03;22.00;96.00
4293;DHT22;2160;51.172;6.808;2023-05-20T16:24:31;21.90;96.60
4293;DHT22;2160;51.172;6.808;2023-05-20T16:26:58;21.90;96.80
4293;DHT22;2160;51.172;6.808;2023-05-20T16:29:26;21.90;96.90
4293;DHT22;2160;51.172;6.808;2023-05-20T16:31:53;22.00;97.60
4293;DHT22;2160;51.172;6.808;2023-05-20T16:34:20;21.90;97.10
4293;DHT22;2160;51.172;6.808;2023-05-20T16:36:47;21.90;97.20
4293;DHT22;2160;51.172;6.808;2023-05-20T16:39:14;21.90;97.20
4293;DHT22;2160;51.172;6.808;2023-05-20T16:41:42;21.90;97.60
4293;DHT22;2160;51.172;6.808;2023-05-20T16:44:09;21.90;96.90
4293;DHT22;2160;51.172;6.808;2023-05-20T16:46:36;21.90;97.00
4293;DHT22;2160;51.172;6.808;2023-05-20T16:49:03;21.90;97.50
4293;DHT22;2160;51.172;6.808;2023-05-20T16:51:30;22.10;97.10
4293;DHT22;2160;51.172;6.808;2023-05-20T16:53:57;22.10;97.10
4293;DHT22;2160;51.172;6.808;2023-05-20T16:56:24;22.00;97.10
4293;DHT22;2160;51.172;6.808;2023-05-20T16:58:53;21.80;97.10
4293;DHT22;2160;51.172;6.808;2023-05-20T17:01:20;21.90;97.80
4293;DHT22;2160;51.172;6.808;2023-05-20T17:03:47;21.90;97.50
4293;DHT22;2160;51.172;6.808;2023-05-20T17:06:14;21.90;97.80
4293;DHT22;2160;51.172;6.808;2023-05-20T17:08:42;21.80;97.50
4293;DHT22;2160;51.172;6.808;2023-05-20T17:11:09;21.70;98.10
4293;DHT22;2160;51.172;6.808;2023-05-20T17:13:36;21.80;98.30
4293;DHT22;2160;51.172;6.808;2023-05-20T17:16:07;21.80;98.30
4293;DHT22;2160;51.172;6.808;2023-05-20T17:18:36;21.60;97.80
4293;DHT22;2160;51.172;6.808;2023-05-20T17:21:03;21.40;98.20
4293;DHT22;2160;51.172;6.808;2023-05-20T17:23:30;21.30;98.30
4293;DHT22;2160;51.172;6.808;2023-05-20T17:25:57;21.40;98.70
4293;DHT22;2160;51.172;6.808;2023-05-20T17:28:24;21.50;98.40
4293;DHT22;2160;51.172;6.808;2023-05-20T17:30:51;21.40;98.70
4293;DHT22;2160;51.172;6.808;2023-05-20T17:33:20;21.30;98.50
4293;DHT22;2160;51.172;6.808;2023-05-20T17:35:47;21.30;98.70
4293;DHT22;2160;51.172;6.808;2023-05-20T17:38:14;21.30;98.70
4293;DHT22;2160;51.172;6.808;2023-05-20T17:40:41;21.30;99.00
4293;DHT22;2160;51.172;6.808;2023-05-20T17:43:08;21.30;99.00
4293;DHT22;2160;51.172;6.808;2023-05-20T17:45:35;21.20;99.30
4293;DHT22;2160;51.172;6.808;2023-05-20T17:48:02;21.40;99.90
4293;DHT22;2160;51.172;6.808;2023-05-20T17:50:32;21.50;99.60
4293;DHT22;2160;51.172;6.808;2023-05-20T17:53:00;21.30;99.40
4293;DHT22;2160;51.172;6.808;2023-05-20T17:55:27;21.30;99.40
4293;DHT22;2160;51.172;6.808;2023-05-20T17:57:54;21.30;98.80
4293;DHT22;2160;51.172;6.808;2023-05-20T18:00:23;21.20;99.90
4293;DHT22;2160;51.172;6.808;2023-05-20T18:02:51;21.10;99.60
4293;DHT22;2160;51.172;6.808;2023-05-20T18:05:22;21.20;99.40
4293;DHT22;2160;51.172;6.808;2023-05-20T18:07:50;21.20;99.20
4293;DHT22;2160;51.172;6.808;2023-05-20T18:10:17;21.20;99.30
4293;DHT22;2160;51.172;6.808;2023-05-20T18:12:44;21.20;99.90
4293;DHT22;2160;51.172;6.808;2023-05-20T18:15:11;21.30;99.80
4293;DHT22;2160;51.172;6.808;2023-05-20T18:17:41;21.30;99.80
4293;DHT22;2160;51.172;6.808;2023-05-20T18:20:10;21.20;99.60
4293;DHT22;2160;51.172;6.808;2023-05-20T18:22:38;21.30;99.30
4293;DHT22;2160;51.172;6.808;2023-05-20T18:25:11;21.20;99.90
4293;DHT22;2160;51.172;6.808;2023-05-20T18:27:38;21.20;99.80
4293;DHT22;2160;51.172;6.808;2023-05-20T18:30:06;21.40;99.50
4293;DHT22;2160;51.172;6.808;2023-05-20T18:32:33;21.50;99.90
4293;DHT22;2160;51.172;6.808;2023-05-20T18:35:00;21.30;99.80
4293;DHT22;2160;51.172;6.808;2023-05-20T18:37:27;21.30;99.90
4293;DHT22;2160;51.172;6.808;2023-05-20T18:39:54;21.30;99.90
4293;DHT22;2160;51.172;6.808;2023-05-20T18:42:25;21.30;99.90
4293;DHT22;2160;51.172;6.808;2023-05-20T18:44:52;21.40;99.90
4293;DHT22;2160;51.172;6.808;2023-05-20T18:47:19;21.30;99.60
4293;DHT22;2160;51.172;6.808;2023-05-20T18:49:46;21.30;99.90
4293;DHT22;2160;51.172;6.808;2023-05-20T18:52:13;21.30;99.90
4293;DHT22;2160;51.172;6.808;2023-05-20T18:54:40;21.20;99.90
4293;DHT22;2160;51.172;6.808;2023-05-20T18:57:07;21.30;99.90
4293;DHT22;2160;51.172;6.808;2023-05-20T18:59:36;21.30;99.90
4293;DHT22;2160;51.172;6.808;2023-05-20T19:02:03;21.30;99.90
4293;DHT22;2160;51.172;6.808;2023-05-20T19:04:30;21.40;99.90
4293;DHT22;2160;51.172;6.808;2023-05-20T19:06:57;21.40;99.90
4293;DHT22;2160;51.172;6.808;2023-05-20T19:09:25;21.30;99.90
4293;DHT22;2160;51.172;6.808;2023-05-20T19:11:52;21.30;99.90
4293;DHT22;2160;51.172;6.808;2023-05-20T19:14:23;21.30;99.90
4293;DHT22;2160;51.172;6.808;2023-05-20T19:16:51;21.20;99.90
4293;DHT22;2160;51.172;6.808;2023-05-20T19:19:19;21.10;99.90
4293;DHT22;2160;51.172;6.808;2023-05-20T19:21:45;21.20;99.90
4293;DHT22;2160;51.172;6.808;2023-05-20T19:24:12;21.20;99.90
4293;DHT22;2160;51.172;6.808;2023-05-20T19:26:42;21.10;99.90
4293;DHT22;2160;51.172;6.808;2023-05-20T19:29:09;21.10;99.90
4293;DHT22;2160;51.172;6.808;2023-05-20T19:31:36;20.90;99.90
4293;DHT22;2160;51.172;6.808;2023-05-20T19:34:08;21.00;99.90
4293;DHT22;2160;51.172;6.808;2023-05-20T19:36:36;21.00;99.90
4293;DHT22;2160;51.172;6.808;2023-05-20T19:39:06;21.00;99.90
4293;DHT22;2160;51.172;6.808;2023-05-20T19:41:34;20.90;99.90
4293;DHT22;2160;51.172;6.808;2023-05-20T19:44:01;20.90;99.90
4293;DHT22;2160;51.172;6.808;2023-05-20T19:46:28;20.90;99.90
4293;DHT22;2160;51.172;6.808;2023-05-20T19:48:56;20.80;99.90
4293;DHT22;2160;51.172;6.808;2023-05-20T19:51:24;20.80;99.90
4293;DHT22;2160;51.172;6.808;2023-05-20T19:53:51;20.70;99.90
4293;DHT22;2160;51.172;6.808;2023-05-20T19:56:19;20.70;99.90
4293;DHT22;2160;51.172;6.808;2023-05-20T19:58:49;20.60;99.90
4293;DHT22;2160;51.172;6.808;2023-05-20T20:01:16;20.60;99.90
4293;DHT22;2160;51.172;6.808;2023-05-20T20:03:44;20.60;99.90
4293;DHT22;2160;51.172;6.808;2023-05-20T20:06:11;20.60;99.90
4293;DHT22;2160;51.172;6.808;2023-05-20T20:08:40;20.50;99.90
4293;DHT22;2160;51.172;6.808;2023-05-20T20:11:07;20.40;99.90
4293;DHT22;2160;51.172;6.808;2023-05-20T20:13:34;20.40;99.90
4293;DHT22;2160;51.172;6.808;2023-05-20T20:16:01;20.30;99.90
4293;DHT22;2160;51.172;6.808;2023-05-20T20:18:28;20.30;99.90